Time;durP1;ratioP1;P1;durP2;ratioP2;P2;SDS_P1;SDS_P2;PMS_P1;PMS_P2;Temp;Humidity;BMP_temperature;BMP_pressure;BME280_temperature;BME280_humidity;BME280_pressure;Samples;Min_cycle;Max_cycle;Signal;HPM_P1;HPM_P2
2023/05/01 00:43:55;;;;;;;12.75;8.70;;;14.80;99.90;;;;;;6261090;22;20065;-92
2023/05/01 00:47:09;;;;;;;11.43;8.93;;;14.80;99.90;;;;;;6227504;22;20007;-93
2023/05/01 00:50:03;;;;;;;12.57;8.90;;;14.80;99.90;;;;;;6227523;22;20429;-92
2023/05/01 00:52:36;;;;;;;12.68;9.18;;;14.80;99.90;;;;;;6227100;22;20345;-92
2023/05/01 00:55:15;;;;;;;12.70;9.35;;;14.90;99.90;;;;;;6247406;22;20045;-93
2023/05/01 00:58:04;;;;;;;10.30;8.45;;;14.80;99.90;;;;;;6203016;22;20004;-92
2023/05/01 01:00:37;;;;;;;9.13;8.07;;;14.90;99.90;;;;;;6226728;22;20004;-93
2023/05/01 01:03:15;;;;;;;10.23;7.50;;;14.90;99.90;;;;;;6223308;22;20012;-94
2023/05/01 01:06:30;;;;;;;13.13;8.63;;;14.80;99.90;;;;;;6228907;22;20368;-93
2023/05/01 01:09:48;;;;;;;;;;;;;;;;;;;;;
2023/05/01 01:12:58;;;;;;;13.10;8.73;;;14.80;99.90;;;;;;6243060;22;20011;-94
2023/05/01 01:16:09;;;;;;;18.30;9.55;;;14.80;99.90;;;;;;6251545;22;20016;-95
2023/05/01 01:18:49;;;;;;;13.73;9.38;;;14.80;99.90;;;;;;6225256;22;20056;-92
2023/05/01 01:21:28;;;;;;;14.70;9.15;;;14.80;99.90;;;;;;6227704;22;20008;-94
2023/05/01 01:24:18;;;;;;;16.60;10.05;;;14.80;99.90;;;;;;6227376;22;20018;-92
2023/05/01 01:27:48;;;;;;;16.70;9.73;;;14.70;99.90;;;;;;6234044;22;20015;-94
2023/05/01 01:31:09;;;;;;;14.30;9.40;;;14.70;99.90;;;;;;6254524;22;20116;-93
2023/05/01 01:34:45;;;;;;;;;;;;;;;;;;;;;
2023/05/01 01:37:46;;;;;;;14.98;10.02;;;14.60;99.90;;;;;;6131096;23;20010;-93
2023/05/01 01:40:38;;;;;;;20.65;11.07;;;14.70;99.90;;;;;;6150161;23;20092;-92
2023/05/01 01:43:12;;;;;;;18.38;9.98;;;14.70;99.90;;;;;;6130906;23;20009;-93
2023/05/01 01:59:13;;;;;;;18.83;12.65;;;14.70;99.90;;;;;;6268349;22;20023;-93
2023/05/01 02:02:02;;;;;;;16.73;11.57;;;14.80;99.90;;;;;;6221976;23;20044;-94
2023/05/01 02:05:04;;;;;;;18.85;12.13;;;14.80;99.90;;;;;;6221494;23;20015;-93
2023/05/01 02:12:08;;;;;;;18.60;12.43;;;14.80;99.90;;;;;;5982438;23;20056;-93
2023/05/01 02:14:56;;;;;;;17.95;12.25;;;14.80;99.90;;;;;;5979806;24;20012;-92
2023/05/01 02:17:57;;;;;;;21.15;13.55;;;14.80;99.90;;;;;;5982133;24;20099;-93
2023/05/01 02:21:04;;;;;;;18.65;11.70;;;14.80;99.90;;;;;;5982746;23;20064;-92
2023/05/01 02:23:47;;;;;;;18.05;11.82;;;14.90;99.90;;;;;;5960355;24;20366;-92
2023/05/01 02:26:45;;;;;;;17.10;11.63;;;14.80;99.90;;;;;;5961770;24;20434;-93
2023/05/01 02:30:08;;;;;;;;;;;;;;;;;;;;;
2023/05/01 02:36:45;;;;;;;;;;;;;;;;;;;;;
2023/05/01 02:40:11;;;;;;;18.75;12.32;;;14.90;99.90;;;;;;5927319;24;20021;-93
2023/05/01 02:43:11;;;;;;;22.80;12.38;;;14.80;99.90;;;;;;5927167;24;20017;-92
2023/05/01 02:53:39;;;;;;;;;;;;;;;;;;;;;
2023/05/01 03:04:07;;;;;;;25.85;17.17;;;14.80;99.90;;;;;;6021548;23;20156;-93
2023/05/01 03:06:49;;;;;;;20.70;15.23;;;14.80;99.90;;;;;;5933172;24;20013;-94
2023/05/01 03:10:09;;;;;;;27.08;16.17;;;14.80;99.90;;;;;;5911130;24;20016;-93
2023/05/01 03:16:52;;;;;;;24.35;15.65;;;14.90;99.90;;;;;;6254114;22;20095;-92
2023/05/01 03:19:47;;;;;;;23.70;14.57;;;14.90;99.90;;;;;;6222932;23;20430;-93
2023/05/01 03:22:22;;;;;;;22.10;14.55;;;14.90;99.90;;;;;;6196881;23;20018;-93
2023/05/01 03:25:30;;;;;;;;;;;;;;;;;;;;;
2023/05/01 03:35:03;;;;;;;22.65;15.55;;;15.00;99.90;;;;;;6235423;22;20133;-94
2023/05/01 03:37:38;;;;;;;24.00;15.38;;;15.00;99.90;;;;;;6231722;22;20030;-93
2023/05/01 03:40:18;;;;;;;24.85;15.48;;;15.10;99.90;;;;;;6240166;22;20014;-94
2023/05/01 03:59:17;;;;;;;19.92;10.00;;;15.00;99.90;;;;;;6280361;22;20027;-93
2023/05/01 04:03:04;;;;;;;15.52;7.97;;;14.90;99.90;;;;;;6013282;23;20051;-93
2023/05/01 04:16:20;;;;;;;16.05;6.40;;;14.90;99.90;;;;;;6312302;22;20050;-94
2023/05/01 04:19:02;;;;;;;20.60;6.78;;;14.90;99.90;;;;;;6258387;22;20011;-92
2023/05/01 04:22:02;;;;;;;14.07;5.20;;;14.90;99.90;;;;;;6251503;22;20136;-93
2023/05/01 04:24:53;;;;;;;10.40;5.03;;;14.80;99.90;;;;;;6268512;22;20086;-93
2023/05/01 04:27:26;;;;;;;12.55;6.25;;;14.80;99.90;;;;;;6227604;22;20011;-92
2023/05/01 04:29:56;;;;;;;12.68;5.53;;;14.80;99.90;;;;;;6227314;22;20011;-93
2023/05/01 04:32:31;;;;;;;11.55;6.35;;;14.80;99.90;;;;;;6185900;23;20023;-93
2023/05/01 04:35:03;;;;;;;12.38;5.90;;;14.80;99.90;;;;;;6138082;23;20005;-94
2023/05/01 04:37:30;;;;;;;12.30;5.65;;;14.80;99.90;;;;;;6136979;23;20450;-93
2023/05/01 04:40:12;;;;;;;14.27;5.88;;;14.70;99.90;;;;;;6137334;23;20293;-92
2023/05/01 04:42:48;;;;;;;12.65;5.20;;;14.70;99.90;;;;;;6137119;23;20424;-94
2023/05/01 04:45:20;;;;;;;11.52;4.88;;;14.70;99.90;;;;;;6140863;23;20040;-93
2023/05/01 04:47:59;;;;;;;12.88;4.65;;;14.70;99.90;;;;;;6137920;23;20044;-93
2023/05/01 04:50:28;;;;;;;12.82;5.28;;;14.60;99.90;;;;;;6159988;23;20013;-93
2023/05/01 04:53:09;;;;;;;11.50;4.90;;;14.60;99.90;;;;;;6139018;23;20049;-93
2023/05/01 04:56:02;;;;;;;15.52;4.95;;;14.50;99.90;;;;;;6138083;23;20009;-93
2023/05/01 04:58:49;;;;;;;15.02;4.78;;;14.50;99.90;;;;;;6173722;23;20052;-93
2023/05/01 05:01:43;;;;;;;13.57;4.47;;;14.50;99.90;;;;;;6137661;23;20091;-94
2023/05/01 05:04:17;;;;;;;12.60;3.72;;;14.40;99.90;;;;;;6241093;22;20026;-93
2023/05/01 05:07:16;;;;;;;11.32;4.20;;;14.40;99.90;;;;;;6229839;22;20012;-93
2023/05/01 05:14:54;;;;;;;;;;;;;;;;;;;;;
2023/05/01 05:22:11;;;;;;;11.15;4.30;;;14.60;99.90;;;;;;6071425;23;20093;-92
2023/05/01 05:25:50;;;;;;;7.45;3.95;;;14.60;99.90;;;;;;6052842;23;20479;-93
2023/05/01 05:32:59;;;;;;;;;;;;;;;;;;;;;
2023/05/01 05:40:01;;;;;;;11.00;4.10;;;15.00;99.90;;;;;;5864442;24;20017;-93
2023/05/01 05:43:32;;;;;;;;;;;;;;;;;;;;;
2023/05/01 05:47:05;;;;;;;14.60;4.20;;;15.20;99.90;;;;;;5873291;24;20044;-93
2023/05/01 05:49:49;;;;;;;14.45;4.10;;;15.20;99.90;;;;;;5873973;24;20063;-94
2023/05/01 05:53:05;;;;;;;9.48;3.53;;;15.40;99.90;;;;;;5877661;24;20475;-93
2023/05/01 05:56:09;;;;;;;7.60;3.53;;;15.40;99.90;;;;;;5901733;24;20009;-93
2023/05/01 05:59:23;;;;;;;13.05;4.40;;;15.50;99.90;;;;;;5936378;24;20088;-95
2023/05/01 06:02:19;;;;;;;10.27;3.33;;;15.40;99.90;;;;;;6076740;22;20178;-94
2023/05/01 06:04:50;;;;;;;10.82;3.55;;;15.60;99.90;;;;;;6226275;22;20318;-93
2023/05/01 06:07:26;;;;;;;14.70;4.68;;;15.70;99.90;;;;;;6220870;23;20008;-94
2023/05/01 06:09:53;;;;;;;9.38;3.80;;;15.80;99.90;;;;;;6197640;23;20004;-92
2023/05/01 06:12:28;;;;;;;7.78;4.07;;;15.60;99.90;;;;;;6195461;23;20019;-93
2023/05/01 06:14:56;;;;;;;15.27;3.97;;;15.50;99.90;;;;;;6197520;23;20012;-93
2023/05/01 06:17:24;;;;;;;16.27;3.88;;;15.40;99.90;;;;;;6221826;23;20429;-92
2023/05/01 06:23:00;;;;;;;11.40;4.20;;;15.70;99.90;;;;;;6284535;22;20524;-94
2023/05/01 06:26:02;;;;;;;9.25;3.50;;;15.80;99.90;;;;;;6208352;23;20041;-93
2023/05/01 06:28:32;;;;;;;6.50;3.92;;;15.80;99.90;;;;;;6229672;22;20521;-94
2023/05/01 06:31:00;;;;;;;12.68;4.15;;;15.90;99.90;;;;;;6227383;22;20034;-93
2023/05/01 06:33:33;;;;;;;13.98;4.55;;;15.90;99.90;;;;;;6227895;22;20073;-94
2023/05/01 06:36:23;;;;;;;11.77;4.00;;;16.00;99.90;;;;;;6154661;22;20034;-93
2023/05/01 06:38:52;;;;;;;10.82;4.20;;;16.10;99.90;;;;;;6235508;22;20024;-93
2023/05/01 06:41:49;;;;;;;8.82;4.32;;;16.10;99.90;;;;;;6227486;22;20035;-94
2023/05/01 06:44:43;;;;;;;14.85;4.40;;;16.20;99.90;;;;;;6256700;22;20019;-93
2023/05/01 06:50:03;;;;;;;5.40;4.22;;;16.30;99.90;;;;;;6280540;22;20472;-92
2023/05/01 06:52:33;;;;;;;10.45;4.38;;;16.30;99.90;;;;;;6226684;22;20011;-87
2023/05/01 06:54:59;;;;;;;9.98;4.40;;;16.40;99.90;;;;;;6225538;22;20003;-89
2023/05/01 06:57:26;;;;;;;8.23;4.47;;;16.40;99.90;;;;;;6221987;23;20046;-87
2023/05/01 06:59:52;;;;;;;9.73;4.80;;;16.40;99.90;;;;;;6220410;23;20004;-89
2023/05/01 07:02:19;;;;;;;8.10;4.63;;;16.20;99.90;;;;;;6220374;23;20083;-89
2023/05/01 07:15:34;;;;;;;9.95;5.32;;;16.70;99.90;;;;;;6267075;22;20045;-87
2023/05/01 07:18:01;;;;;;;14.95;5.00;;;16.70;99.90;;;;;;6217332;23;20091;-83
2023/05/01 07:20:28;;;;;;;9.15;5.00;;;16.90;99.90;;;;;;6218490;23;20004;-86
2023/05/01 07:22:54;;;;;;;8.90;5.18;;;17.00;99.90;;;;;;6216093;23;20009;-82
2023/05/01 07:25:21;;;;;;;9.88;5.53;;;17.00;99.90;;;;;;6215761;23;20039;-83
2023/05/01 07:27:47;;;;;;;8.48;5.00;;;17.00;99.90;;;;;;6215845;23;20001;-83
2023/05/01 07:30:14;;;;;;;6.47;4.50;;;16.70;99.90;;;;;;6188437;23;20019;-83
2023/05/01 07:32:41;;;;;;;8.88;4.63;;;16.60;99.90;;;;;;6215649;23;20017;-82
2023/05/01 07:35:07;;;;;;;10.30;4.70;;;16.60;99.90;;;;;;6215940;23;20338;-82
2023/05/01 07:37:34;;;;;;;9.27;4.97;;;16.60;99.90;;;;;;6241130;22;20065;-82
2023/05/01 07:40:00;;;;;;;9.70;4.53;;;16.70;99.90;;;;;;6215824;23;20131;-82
2023/05/01 07:42:27;;;;;;;10.55;4.90;;;16.70;99.90;;;;;;6215570;23;20044;-82
2023/05/01 07:44:53;;;;;;;10.48;5.13;;;16.70;99.90;;;;;;6217064;23;20000;-82
2023/05/01 07:47:23;;;;;;;6.53;5.10;;;16.80;99.90;;;;;;6190629;23;20012;-82
2023/05/01 07:49:50;;;;;;;7.13;5.18;;;16.60;99.90;;;;;;6215785;23;20059;-82
2023/05/01 07:52:16;;;;;;;7.93;5.15;;;16.50;99.90;;;;;;6195984;23;20009;-91
2023/05/01 07:54:47;;;;;;;9.70;5.20;;;16.70;99.90;;;;;;6216950;23;20019;-90
2023/05/01 07:57:14;;;;;;;10.15;5.20;;;16.80;99.90;;;;;;6216813;23;20124;-92
2023/05/01 07:59:40;;;;;;;13.52;5.72;;;16.70;99.90;;;;;;6192135;23;20448;-93
2023/05/01 08:02:06;;;;;;;5.38;4.88;;;16.80;99.90;;;;;;6216666;23;20079;-90
2023/05/01 09:22:21;;;;;;;6.38;4.38;;;17.20;99.90;;;;;;6284495;22;20030;-92
2023/05/01 09:25:12;;;;;;;11.57;5.30;;;17.10;99.90;;;;;;6277351;22;20015;-95
2023/05/01 09:27:44;;;;;;;8.65;4.43;;;16.80;99.90;;;;;;6248646;22;20024;-93
2023/05/01 09:30:34;;;;;;;6.40;3.85;;;16.80;99.90;;;;;;6226770;22;20051;-94
2023/05/01 09:33:15;;;;;;;5.00;3.90;;;16.80;99.90;;;;;;6221528;23;20099;-94
2023/05/01 09:35:55;;;;;;;10.95;4.50;;;16.90;99.90;;;;;;6246217;23;20031;-94
2023/05/01 09:38:24;;;;;;;7.63;4.53;;;16.90;99.90;;;;;;6246280;23;20012;-94
2023/05/01 09:40:53;;;;;;;7.10;5.22;;;17.10;99.90;;;;;;6246791;23;20000;-95
2023/05/01 10:05:11;;;;;;;6.00;3.97;;;17.10;99.90;;;;;;6134370;22;20033;-93
2023/05/01 10:07:58;;;;;;;7.13;4.20;;;17.10;99.90;;;;;;6245023;22;20020;-93
2023/05/01 10:10:25;;;;;;;5.22;4.18;;;17.00;99.90;;;;;;6260189;22;20007;-92
2023/05/01 10:13:17;;;;;;;10.45;4.78;;;17.10;99.90;;;;;;6246890;22;20004;-93
2023/05/01 10:16:24;;;;;;;15.25;6.75;;;17.10;99.90;;;;;;6251441;22;20433;-93
2023/05/01 10:19:11;;;;;;;35.00;20.17;;;17.30;99.90;;;;;;6264365;22;20035;-93
2023/05/01 10:21:43;;;;;;;19.05;9.07;;;17.30;99.90;;;;;;6231689;22;20004;-81
2023/05/01 10:40:46;;;;;;;7.32;3.60;;;16.80;99.90;;;;;;6279294;22;20058;-92
2023/05/01 10:43:17;;;;;;;8.93;3.85;;;16.80;99.90;;;;;;6226052;22;20007;-93
2023/05/01 10:45:45;;;;;;;4.63;4.20;;;17.00;99.90;;;;;;6231258;22;20014;-92
2023/05/01 10:48:12;;;;;;;5.78;3.90;;;17.20;99.90;;;;;;6228031;22;20012;-91
2023/05/01 10:51:14;;;;;;;5.82;4.03;;;17.20;99.90;;;;;;6222282;23;20004;-91
2023/05/01 10:53:42;;;;;;;5.13;4.18;;;17.20;99.90;;;;;;6247259;23;20020;-90
2023/05/01 10:56:37;;;;;;;5.25;4.25;;;17.20;99.90;;;;;;6247315;23;20031;-89
2023/05/01 10:59:04;;;;;;;5.53;4.30;;;17.20;99.90;;;;;;6197067;23;20008;-91
2023/05/01 11:01:43;;;;;;;8.73;4.57;;;17.30;99.90;;;;;;6221881;23;20004;-90
2023/05/01 11:04:22;;;;;;;4.63;4.13;;;17.40;99.90;;;;;;6247279;23;20011;-89
2023/05/01 11:07:04;;;;;;;6.65;3.95;;;17.20;99.90;;;;;;6247488;23;20016;-90
2023/05/01 11:09:53;;;;;;;8.80;4.18;;;17.00;99.90;;;;;;6247153;22;20016;-89
2023/05/01 11:12:50;;;;;;;7.07;3.92;;;17.10;99.90;;;;;;6247638;23;20099;-88
2023/05/01 11:15:33;;;;;;;8.23;4.00;;;17.10;99.90;;;;;;6185326;23;20012;-88
2023/05/01 11:18:03;;;;;;;5.80;3.90;;;17.00;99.90;;;;;;6247387;23;20019;-88
2023/05/01 11:20:35;;;;;;;4.78;4.13;;;17.20;99.90;;;;;;6250934;22;20012;-89
2023/05/01 11:23:05;;;;;;;7.45;4.20;;;17.40;99.90;;;;;;6248988;23;20134;-88
2023/05/01 11:25:42;;;;;;;6.43;4.22;;;17.40;99.90;;;;;;6247393;23;20138;-89
2023/05/01 11:28:10;;;;;;;9.95;4.80;;;17.50;99.90;;;;;;6247418;23;20016;-90
2023/05/01 11:30:40;;;;;;;5.40;5.00;;;17.80;99.90;;;;;;6247090;22;20008;-89
2023/05/01 11:33:07;;;;;;;5.35;4.70;;;17.70;99.90;;;;;;6247012;23;20042;-91
2023/05/01 11:35:33;;;;;;;6.38;5.05;;;17.40;99.90;;;;;;6221927;23;20505;-91
2023/05/01 11:37:59;;;;;;;5.13;4.63;;;17.40;99.90;;;;;;6222055;23;20025;-91
2023/05/01 11:40:27;;;;;;;7.25;4.70;;;17.10;99.90;;;;;;6216491;23;20438;-91
2023/05/01 11:43:02;;;;;;;5.78;4.75;;;17.30;99.90;;;;;;6241917;23;20015;-90
2023/05/01 11:45:29;;;;;;;5.00;3.92;;;17.30;99.90;;;;;;6242297;23;20028;-90
2023/05/01 11:47:55;;;;;;;6.72;3.95;;;17.10;99.90;;;;;;6242048;23;20009;-91
2023/05/01 11:50:30;;;;;;;6.88;3.80;;;16.90;99.90;;;;;;6241759;22;20009;-90
2023/05/01 11:52:57;;;;;;;7.70;4.18;;;16.90;99.90;;;;;;6241981;23;20020;-90
2023/05/01 11:55:34;;;;;;;7.63;3.65;;;17.10;99.90;;;;;;6216831;23;20000;-91
2023/05/01 11:58:01;;;;;;;8.43;4.13;;;17.10;99.90;;;;;;6241931;23;20019;-91
2023/05/01 12:00:32;;;;;;;6.05;3.67;;;17.00;99.90;;;;;;6241093;22;20000;-90
2023/05/01 12:03:00;;;;;;;10.85;3.78;;;17.10;99.90;;;;;;6241617;23;20013;-89
2023/05/01 12:05:28;;;;;;;8.48;4.05;;;17.10;99.90;;;;;;6241773;23;20055;-90
2023/05/01 12:08:10;;;;;;;10.23;3.70;;;17.10;99.90;;;;;;6241979;23;20009;-90
2023/05/01 12:10:39;;;;;;;8.02;3.60;;;17.20;99.90;;;;;;6241294;22;20009;-90
2023/05/01 12:13:07;;;;;;;6.75;4.10;;;17.50;99.90;;;;;;6241546;23;20013;-89
2023/05/01 12:15:39;;;;;;;12.82;3.88;;;17.30;99.90;;;;;;6241705;23;20008;-90
2023/05/01 12:18:06;;;;;;;3.75;3.45;;;17.20;99.90;;;;;;6241431;23;20096;-91
2023/05/01 12:20:39;;;;;;;6.22;3.20;;;17.20;99.90;;;;;;6241543;22;20000;-92
2023/05/01 12:23:08;;;;;;;4.10;3.20;;;17.30;99.90;;;;;;6241384;23;20036;-90
2023/05/01 12:25:35;;;;;;;7.28;3.33;;;17.00;99.90;;;;;;6242071;23;20005;-92
2023/05/01 12:28:19;;;;;;;9.68;3.20;;;17.00;99.90;;;;;;6241321;23;20047;-92
2023/05/01 12:30:47;;;;;;;10.87;4.90;;;16.90;99.90;;;;;;6241253;22;20066;-91
2023/05/01 12:33:32;;;;;;;8.68;4.28;;;17.00;99.90;;;;;;6241346;23;20279;-93
2023/05/01 12:36:08;;;;;;;;;;;17.30;99.90;;;;;;6216464;23;20116;-93
2023/05/01 12:38:35;;;;;;;6.43;3.85;;;17.60;99.90;;;;;;6194072;23;19904;-91
2023/05/01 12:41:01;;;;;;;12.10;5.93;;;17.60;99.90;;;;;;6221165;23;20035;-91
2023/05/01 12:43:33;;;;;;;8.77;4.47;;;17.40;99.90;;;;;;6246268;23;20085;-91
2023/05/01 12:46:04;;;;;;;7.13;4.28;;;17.30;99.90;;;;;;6247200;23;20072;-92
2023/05/01 12:48:34;;;;;;;9.80;3.65;;;17.30;99.90;;;;;;6253755;23;20008;-90
2023/05/01 12:51:02;;;;;;;7.03;3.80;;;17.20;99.90;;;;;;6220637;23;20008;-93
2023/05/01 12:53:29;;;;;;;8.55;3.90;;;17.20;99.90;;;;;;6220748;23;20020;-90
2023/05/01 12:55:58;;;;;;;5.85;3.60;;;17.20;99.90;;;;;;6220953;23;20027;-91
2023/05/01 12:58:35;;;;;;;12.90;4.50;;;17.40;99.90;;;;;;6220707;23;20012;-91
2023/05/01 13:01:02;;;;;;;6.05;4.28;;;17.50;99.90;;;;;;6246267;22;20042;-91
2023/05/01 13:03:29;;;;;;;9.48;4.70;;;17.70;99.90;;;;;;6221092;23;20004;-92
2023/05/01 13:05:58;;;;;;;12.70;4.85;;;17.70;99.90;;;;;;6245820;23;20004;-92
2023/05/01 13:08:30;;;;;;;12.20;4.95;;;17.50;99.90;;;;;;6245896;23;20012;-93
2023/05/01 13:11:00;;;;;;;8.50;4.95;;;17.60;99.90;;;;;;6245874;22;20437;-92
2023/05/01 13:13:33;;;;;;;10.23;5.07;;;17.70;99.90;;;;;;6246140;23;20020;-93
2023/05/01 13:16:11;;;;;;;7.55;5.00;;;17.60;99.90;;;;;;6246032;23;20048;-92
2023/05/01 13:18:47;;;;;;;7.55;5.20;;;17.80;99.90;;;;;;6246195;23;20012;-92
2023/05/01 13:21:19;;;;;;;11.98;5.60;;;17.80;99.90;;;;;;6245752;22;20004;-91
2023/05/01 13:23:59;;;;;;;13.13;5.28;;;17.60;99.90;;;;;;6246161;23;20004;-93
2023/05/01 13:26:27;;;;;;;6.35;4.90;;;17.50;99.90;;;;;;6245836;23;20012;-91
2023/05/01 13:28:58;;;;;;;14.85;5.28;;;17.70;99.90;;;;;;6245924;23;20000;-91
2023/05/01 13:31:25;;;;;;;10.82;6.00;;;17.70;99.90;;;;;;6245753;22;20015;-91
2023/05/01 13:33:53;;;;;;;9.05;6.07;;;17.90;99.90;;;;;;6220391;23;20016;-92
2023/05/01 13:36:20;;;;;;;11.65;6.38;;;18.00;99.90;;;;;;6245950;23;20004;-92
2023/05/01 13:38:50;;;;;;;8.00;5.80;;;17.90;99.90;;;;;;6240488;23;20013;-92
2023/05/01 13:41:21;;;;;;;9.07;6.05;;;17.80;99.90;;;;;;6240625;22;20005;-94
2023/05/01 13:43:52;;;;;;;9.93;6.53;;;17.90;99.90;;;;;;6241044;23;20366;-92
2023/05/01 13:46:21;;;;;;;8.35;5.85;;;17.90;99.90;;;;;;6240665;23;20011;-91
2023/05/01 13:48:48;;;;;;;10.52;7.18;;;18.00;99.90;;;;;;6240844;23;20369;-92
2023/05/01 13:51:20;;;;;;;10.30;6.50;;;18.20;99.90;;;;;;6240917;22;20019;-92
2023/05/01 13:53:47;;;;;;;7.82;6.50;;;18.10;99.90;;;;;;6240691;23;20091;-92
2023/05/01 13:56:14;;;;;;;12.90;6.70;;;18.20;99.90;;;;;;6215504;23;20007;-92
2023/05/01 13:58:41;;;;;;;17.95;8.40;;;18.00;99.90;;;;;;6215423;23;20012;-93
2023/05/01 14:01:17;;;;;;;11.88;7.28;;;17.90;99.90;;;;;;6240617;22;20007;-93
2023/05/01 14:03:44;;;;;;;13.50;7.18;;;17.60;99.90;;;;;;6240693;23;20005;-93
2023/05/01 14:06:16;;;;;;;12.75;6.82;;;17.40;99.90;;;;;;6190372;23;20008;-94
2023/05/01 14:08:45;;;;;;;9.80;5.82;;;17.40;99.90;;;;;;6240628;23;20008;-93
2023/05/01 14:11:12;;;;;;;16.38;6.25;;;17.50;99.90;;;;;;6240342;22;20001;-91
2023/05/01 14:13:44;;;;;;;7.70;5.50;;;17.40;99.90;;;;;;6247628;23;20091;-91
2023/05/01 14:16:27;;;;;;;10.85;5.72;;;17.40;99.90;;;;;;6240749;23;20023;-92
2023/05/01 14:18:55;;;;;;;16.35;5.70;;;17.30;99.90;;;;;;6239966;23;20043;-92
2023/05/01 14:21:26;;;;;;;7.55;5.15;;;17.40;99.90;;;;;;6240648;22;20434;-93
2023/05/01 18:25:34;;;;;;;7.72;5.57;;;13.50;99.90;;;;;;6291887;22;20050;-93
2023/05/01 18:28:00;;;;;;;7.95;6.35;;;13.30;99.90;;;;;;6259313;22;20003;-91
2023/05/01 18:30:27;;;;;;;11.45;9.57;;;13.20;99.90;;;;;;6256950;22;20007;-91
2023/05/01 18:32:54;;;;;;;7.78;6.25;;;13.20;99.90;;;;;;6259059;22;20098;-92
2023/05/01 18:35:20;;;;;;;10.30;5.90;;;13.20;99.90;;;;;;6255129;22;20004;-92
2023/05/01 18:37:46;;;;;;;11.25;5.57;;;13.20;99.90;;;;;;6251473;22;20022;-92
2023/05/01 18:40:13;;;;;;;11.40;6.18;;;13.30;99.90;;;;;;6250815;22;20004;-92
2023/05/01 18:42:41;;;;;;;8.90;5.57;;;13.40;99.90;;;;;;6251228;22;20062;-92
2023/05/01 18:45:10;;;;;;;12.05;5.90;;;13.50;99.90;;;;;;6250640;22;20008;-92
2023/05/01 18:47:37;;;;;;;8.73;5.20;;;13.40;99.90;;;;;;6263614;22;20071;-92
2023/05/01 18:50:05;;;;;;;6.68;5.22;;;13.50;99.90;;;;;;6259493;22;20037;-92
2023/05/01 18:52:48;;;;;;;12.35;5.97;;;13.50;99.90;;;;;;6235405;22;20019;-94
2023/05/01 18:55:15;;;;;;;12.35;5.15;;;13.50;99.90;;;;;;6230321;22;20142;-92
2023/05/01 18:57:47;;;;;;;8.30;5.40;;;13.50;99.90;;;;;;6226368;22;20007;-92
2023/05/01 19:00:19;;;;;;;12.07;6.05;;;13.50;99.90;;;;;;6228742;22;20015;-93
2023/05/01 19:02:50;;;;;;;15.40;6.72;;;13.60;99.90;;;;;;6226361;22;20004;-92
2023/05/01 19:05:17;;;;;;;10.50;5.93;;;13.60;99.90;;;;;;6226564;22;20023;-92
2023/05/01 19:07:44;;;;;;;14.38;5.03;;;13.60;99.90;;;;;;6227401;22;20065;-91
2023/05/01 19:10:10;;;;;;;8.02;4.90;;;13.80;99.90;;;;;;6227339;22;20010;-92
2023/05/01 19:12:40;;;;;;;6.85;4.45;;;13.70;99.90;;;;;;6227293;22;20020;-92
2023/05/01 19:15:08;;;;;;;11.52;5.05;;;13.70;99.90;;;;;;6228459;22;20019;-93
2023/05/01 19:17:34;;;;;;;11.13;4.80;;;13.70;99.90;;;;;;6227683;22;20059;-93
2023/05/01 19:20:03;;;;;;;8.88;4.85;;;13.70;99.90;;;;;;6227305;22;20563;-94
2023/05/01 19:22:31;;;;;;;12.43;4.95;;;13.70;99.90;;;;;;6220881;23;20012;-92
2023/05/01 19:25:01;;;;;;;9.88;5.03;;;13.70;99.90;;;;;;6222325;23;20011;-94
2023/05/01 19:27:31;;;;;;;9.77;4.55;;;13.70;99.90;;;;;;6225985;23;20008;-94
2023/05/01 19:30:09;;;;;;;10.13;4.45;;;13.70;99.90;;;;;;6210798;23;20009;-93
2023/05/01 19:33:25;;;;;;;13.25;5.25;;;13.80;99.90;;;;;;6240883;22;20042;-93
2023/05/01 19:39:06;;;;;;;;;;;;;;;;;;;;;
2023/05/01 19:41:58;;;;;;;19.08;5.18;;;13.80;99.90;;;;;;6334741;22;20033;-93
2023/05/01 19:44:49;;;;;;;13.18;6.38;;;13.80;99.90;;;;;;6299814;22;19999;-94
2023/05/01 19:47:26;;;;;;;13.57;6.50;;;13.90;99.90;;;;;;6271992;22;20011;-93
2023/05/01 19:50:22;;;;;;;15.15;6.70;;;13.90;99.90;;;;;;6296552;22;20034;-94
2023/05/01 19:53:10;;;;;;;10.88;5.10;;;13.90;99.90;;;;;;6287384;22;20074;-94
2023/05/01 19:55:38;;;;;;;10.07;4.53;;;13.90;99.90;;;;;;6272460;22;20015;-93
2023/05/01 19:58:09;;;;;;;16.10;4.93;;;13.90;99.90;;;;;;6260011;23;19997;-93
2023/05/01 20:01:28;;;;;;;11.30;4.47;;;13.80;99.90;;;;;;6260601;22;20008;-94
2023/05/01 20:04:04;;;;;;;10.48;4.70;;;13.80;99.90;;;;;;6142063;23;20010;-93
2023/05/01 20:06:34;;;;;;;14.73;4.65;;;13.80;99.90;;;;;;6146051;23;20032;-93
2023/05/01 20:09:07;;;;;;;13.95;5.20;;;13.80;99.90;;;;;;6139131;23;20006;-94
2023/05/01 20:11:41;;;;;;;15.82;4.75;;;13.80;99.90;;;;;;6142157;23;20009;-93
2023/05/01 20:14:11;;;;;;;8.88;4.88;;;13.80;99.90;;;;;;6142372;23;20021;-93
2023/05/01 20:16:41;;;;;;;8.40;4.20;;;13.70;99.90;;;;;;6133490;23;20002;-93
2023/05/01 20:19:09;;;;;;;13.73;4.38;;;13.70;99.90;;;;;;6142660;23;20009;-93
2023/05/01 20:21:37;;;;;;;6.40;4.10;;;13.80;99.90;;;;;;6152969;23;20006;-93
2023/05/01 20:24:04;;;;;;;9.23;4.05;;;13.80;99.90;;;;;;6144727;23;20017;-94
2023/05/01 20:26:31;;;;;;;11.23;4.00;;;13.80;99.90;;;;;;6141134;23;20009;-94
2023/05/01 20:29:03;;;;;;;21.02;4.60;;;13.80;99.90;;;;;;6143085;23;20069;-94
2023/05/01 20:31:40;;;;;;;11.40;4.53;;;13.90;99.90;;;;;;6142970;23;20009;-93
2023/05/01 20:34:13;;;;;;;9.95;4.47;;;13.80;99.90;;;;;;6168400;23;20049;-93
2023/05/01 20:36:46;;;;;;;10.90;4.47;;;13.80;99.90;;;;;;6141996;23;20013;-93
2023/05/01 20:39:13;;;;;;;9.30;4.60;;;13.90;99.90;;;;;;6134371;23;20009;-92
2023/05/01 20:41:40;;;;;;;11.93;4.45;;;13.90;99.90;;;;;;6216041;22;20422;-93
2023/05/01 20:44:53;;;;;;;9.85;4.55;;;13.80;99.90;;;;;;6253929;23;20076;-93
2023/05/01 20:47:20;;;;;;;10.68;4.10;;;13.80;99.90;;;;;;6243788;22;20067;-92
2023/05/01 20:49:47;;;;;;;10.75;4.38;;;13.90;99.90;;;;;;6250596;22;20319;-93
2023/05/01 20:52:14;;;;;;;8.15;4.45;;;13.80;99.90;;;;;;6246171;23;20012;-93
2023/05/01 20:54:40;;;;;;;6.07;4.35;;;13.80;99.90;;;;;;6247529;22;20342;-93
2023/05/01 20:57:07;;;;;;;10.20;3.90;;;13.80;99.90;;;;;;6246352;23;20004;-93
2023/05/01 20:59:33;;;;;;;9.68;4.38;;;13.90;99.90;;;;;;6249130;22;20437;-92
2023/05/01 21:02:03;;;;;;;7.15;4.22;;;13.90;99.90;;;;;;6252059;22;20000;-93
2023/05/01 21:04:30;;;;;;;14.77;5.07;;;13.90;99.90;;;;;;6245030;22;20011;-93
2023/05/01 21:06:57;;;;;;;11.85;4.68;;;14.00;99.90;;;;;;6250924;22;20384;-93
2023/05/01 21:09:40;;;;;;;10.82;5.18;;;14.00;99.90;;;;;;6244230;22;20008;-93
2023/05/01 21:12:22;;;;;;;;;;;;;;;;;;;;;
2023/05/01 21:14:49;;;;;;;10.15;4.82;;;14.00;99.90;;;;;;6281030;22;20019;-94
2023/05/01 21:17:18;;;;;;;8.93;4.72;;;14.10;99.90;;;;;;6243606;22;20003;-94
2023/05/01 21:19:46;;;;;;;12.25;5.00;;;14.10;99.90;;;;;;6252860;22;20004;-93
2023/05/01 21:22:21;;;;;;;7.40;4.53;;;14.10;99.90;;;;;;6245484;22;20003;-93
2023/05/01 21:24:53;;;;;;;13.87;5.43;;;14.10;99.90;;;;;;6249619;22;20012;-93
2023/05/01 21:27:21;;;;;;;11.20;4.50;;;14.20;99.90;;;;;;6246835;23;20301;-92
2023/05/01 21:30:16;;;;;;;11.80;4.50;;;14.20;99.90;;;;;;6248577;22;20083;-93
2023/05/01 21:32:43;;;;;;;17.75;5.43;;;14.20;99.90;;;;;;6125989;23;20085;-93
2023/05/01 21:35:12;;;;;;;7.68;4.22;;;14.30;99.90;;;;;;6072423;23;20003;-92
2023/05/01 21:37:38;;;;;;;14.02;4.45;;;14.20;99.90;;;;;;6072215;23;20037;-93
2023/05/01 21:40:06;;;;;;;12.27;4.65;;;14.30;99.90;;;;;;6101233;23;20009;-94
2023/05/01 21:42:38;;;;;;;10.73;4.40;;;14.30;99.90;;;;;;6071930;23;20010;-93
2023/05/01 21:45:11;;;;;;;10.80;4.90;;;14.30;99.90;;;;;;6077069;23;20110;-93
2023/05/01 21:47:41;;;;;;;8.45;4.18;;;14.30;99.90;;;;;;6091672;23;20021;-92
2023/05/01 21:50:11;;;;;;;14.00;4.47;;;14.30;99.90;;;;;;6103548;23;20006;-93
2023/05/01 21:52:38;;;;;;;13.50;4.75;;;14.30;99.90;;;;;;6076774;23;20021;-94
2023/05/01 21:55:10;;;;;;;12.27;4.53;;;14.30;99.90;;;;;;6130746;23;20471;-93
2023/05/01 21:57:40;;;;;;;14.55;4.43;;;14.40;99.90;;;;;;6109648;23;20088;-93
2023/05/01 22:00:08;;;;;;;13.13;4.20;;;14.40;99.90;;;;;;6132584;23;20025;-93
2023/05/01 22:02:39;;;;;;;10.98;3.85;;;14.40;99.90;;;;;;6131748;23;20064;-93
2023/05/01 22:05:07;;;;;;;12.90;3.80;;;14.50;99.90;;;;;;6156915;23;20009;-94
2023/05/01 22:07:45;;;;;;;8.20;3.38;;;14.50;99.90;;;;;;6106015;23;20005;-93
2023/05/01 22:10:15;;;;;;;8.20;3.63;;;14.60;99.90;;;;;;6166039;23;20012;-93
2023/05/01 22:12:43;;;;;;;8.32;3.50;;;14.50;99.90;;;;;;6220721;23;20078;-93
2023/05/01 22:15:12;;;;;;;14.07;4.03;;;14.60;99.90;;;;;;6195497;23;20428;-93
2023/05/01 22:17:39;;;;;;;11.90;3.50;;;14.50;99.90;;;;;;6220685;23;20008;-93
2023/05/01 22:20:07;;;;;;;12.40;3.60;;;14.60;99.90;;;;;;6197967;23;20004;-93